Bahawalpur Weather



Bahawalpur's Current Weather

Temprature 21.124o clear sky

clear sky

Rain: 0 %

Min Temprature21.124o
Max Temprature21.124o
Humidity64
Wind Speed2.86 m/h
Sun Rise06:45:13
Sun Set18:08:35
Current Time: 23-Feb-2019 16:02:21
Lat/Lon: 29.39, 71.66




Bahawalpur's Geo Location




Bahawalpur's Weather Forecast

Time Overall Temp Min Temp Max Temp Humidity Wind Speed Rain
23-Feb-2019 (Sat)
17:00:00 clear sky 20.530 20.530 21.124 64 2.86 m/h 0 %
20:00:00 clear sky 16.040 16.040 16.484 64 2.87 m/h 0 %
23:00:00 few clouds 13.920 13.920 14.215 72 3.22 m/h 0 %
24-Feb-2019 (Sun)
02:00:00 scattered clouds 12.960 12.960 13.110 75 1.46 m/h 0 %
05:00:00 broken clouds 13.567 13.567 13.567 76 3.81 m/h 0 %
08:00:00 broken clouds 13.678 13.678 13.678 78 2.71 m/h 0 %
11:00:00 clear sky 18.374 18.374 18.374 93 2.11 m/h 0 %
14:00:00 scattered clouds 20.856 20.856 20.856 89 2.67 m/h 0 %
17:00:00 overcast clouds 20.371 20.371 20.371 73 2 m/h 0 %
20:00:00 broken clouds 16.818 16.818 16.818 77 1.41 m/h 0 %
23:00:00 clear sky 14.336 14.336 14.336 85 1.46 m/h 0 %
25-Feb-2019 (Mon)
02:00:00 clear sky 12.280 12.280 12.280 88 1.22 m/h 0 %
05:00:00 scattered clouds 11.452 11.452 11.452 87 2.11 m/h 0 %
08:00:00 broken clouds 11.370 11.370 11.370 92 5.37 m/h 0 %
11:00:00 light rain 15.772 15.772 15.772 92 4.51 m/h 2 %
14:00:00 clear sky 18.823 18.823 18.823 88 4.17 m/h 0 %
17:00:00 scattered clouds 18.912 18.912 18.912 74 2.56 m/h 0 %
20:00:00 scattered clouds 15.298 15.298 15.298 78 2.36 m/h 0 %
23:00:00 scattered clouds 13.117 13.117 13.117 90 2.86 m/h 0 %
26-Feb-2019 (Tue)
02:00:00 scattered clouds 12.401 12.401 12.401 95 3.36 m/h 0 %
05:00:00 overcast clouds 11.947 11.947 11.947 95 3.46 m/h 0 %
08:00:00 light rain 12.632 12.632 12.632 91 3.82 m/h 18 %
11:00:00 light rain 14.392 14.392 14.392 95 4.67 m/h 11 %
14:00:00 light rain 16.721 16.721 16.721 91 3.71 m/h 1 %
17:00:00 clear sky 16.914 16.914 16.914 78 2.86 m/h 0 %
20:00:00 clear sky 13.436 13.436 13.436 75 2.22 m/h 0 %
23:00:00 clear sky 11.198 11.198 11.198 86 1.17 m/h 0 %
27-Feb-2019 (Wed)
02:00:00 clear sky 9.981 9.981 9.981 88 1.26 m/h 0 %
05:00:00 clear sky 9.069 9.069 9.069 88 1.3 m/h 0 %
08:00:00 clear sky 10.540 10.540 10.540 85 1.32 m/h 0 %
11:00:00 clear sky 17.320 17.320 17.320 92 3.16 m/h 0 %
14:00:00 clear sky 19.986 19.986 19.986 81 2.2 m/h 0 %
17:00:00 clear sky 19.598 19.598 19.598 61 1.51 m/h 0 %
20:00:00 scattered clouds 14.442 14.442 14.442 60 1.52 m/h 0 %
23:00:00 few clouds 13.316 13.316 13.316 65 2.87 m/h 0 %
28-Feb-2019 (Thu)
02:00:00 scattered clouds 11.241 11.241 11.241 79 1.96 m/h 0 %
05:00:00 scattered clouds 10.888 10.888 10.888 83 3.46 m/h 0 %
08:00:00 clear sky 11.615 11.615 11.615 82 3.41 m/h 0 %
11:00:00 few clouds 16.772 16.772 16.772 92 2.11 m/h 0 %
14:00:00 broken clouds 18.979 18.979 18.979 79 2.97 m/h 0 %


Bahawalpur's Tourist Spots

Historical Places in Bahawalpur

Famous Cities (60)